createdAt,value
2018-03-26T00:01:16.078Z,71.90
2018-03-26T00:03:42.051Z,71.70
2018-03-26T00:06:08.035Z,72.00
2018-03-26T00:08:35.072Z,72.40
2018-03-26T00:11:01.791Z,71.90
2018-03-26T00:13:27.806Z,72.40
2018-03-26T00:15:53.794Z,72.80
2018-03-26T00:18:19.795Z,72.40
2018-03-26T00:20:45.794Z,72.30
2018-03-26T00:23:11.803Z,72.00
2018-03-26T00:25:37.794Z,72.00
2018-03-26T00:28:03.807Z,71.90
2018-03-26T00:30:29.787Z,71.70
2018-03-26T00:32:55.798Z,72.00
2018-03-26T00:35:21.774Z,71.90
2018-03-26T00:37:47.762Z,72.10
2018-03-26T00:40:13.754Z,71.80
2018-03-26T00:42:39.826Z,71.60
2018-03-26T00:45:06.550Z,71.40
2018-03-26T00:47:32.567Z,71.40
2018-03-26T00:49:58.588Z,70.90
2018-03-26T00:52:24.594Z,71.20
2018-03-26T00:54:50.578Z,70.60
2018-03-26T00:57:17.295Z,70.60
2018-03-26T00:59:44.052Z,71.00
2018-03-26T01:02:10.766Z,71.00
2018-03-26T01:04:36.765Z,71.00
2018-03-26T01:07:02.758Z,70.90
2018-03-26T01:09:28.730Z,70.90
2018-03-26T01:11:54.738Z,70.70
2018-03-26T01:14:20.737Z,71.00
2018-03-26T01:16:46.723Z,70.80
2018-03-26T01:19:12.707Z,70.60
2018-03-26T01:21:38.691Z,70.70
2018-03-26T01:24:04.976Z,70.40
2018-03-26T01:26:30.956Z,70.10
2018-03-26T01:28:56.939Z,70.40
2018-03-26T01:31:23.686Z,70.00
2018-03-26T01:33:50.423Z,70.40
2018-03-26T01:36:16.374Z,70.40
2018-03-26T01:38:42.367Z,71.00
2018-03-26T01:41:09.085Z,70.60
2018-03-26T01:43:35.131Z,70.60
2018-03-26T01:46:02.094Z,70.80
2018-03-26T01:48:28.100Z,70.70
2018-03-26T01:50:54.817Z,70.80
2018-03-26T01:53:20.825Z,70.80
2018-03-26T01:55:46.802Z,70.90
2018-03-26T01:58:12.809Z,70.70
2018-03-26T02:00:39.544Z,70.70
2018-03-26T02:03:06.283Z,71.20
2018-03-26T02:05:33.010Z,71.40
2018-03-26T02:07:59.031Z,71.40
2018-03-26T02:10:25.036Z,72.20
2018-03-26T02:12:51.008Z,72.10
2018-03-26T02:15:16.993Z,71.50
2018-03-26T02:17:42.961Z,71.40
2018-03-26T02:20:09.686Z,71.20
2018-03-26T02:22:35.644Z,71.30
2018-03-26T02:25:01.610Z,72.00
2018-03-26T02:27:27.587Z,71.00
2018-03-26T02:29:53.590Z,71.40
2018-03-26T02:32:19.570Z,72.70
2018-03-26T02:34:45.554Z,71.90
2018-03-26T02:37:11.541Z,71.80
2018-03-26T02:39:38.270Z,72.00
2018-03-26T02:42:04.262Z,72.00
2018-03-26T02:44:30.243Z,71.60
2018-03-26T02:46:56.222Z,71.70
2018-03-26T02:49:22.235Z,71.60
2018-03-26T02:51:48.224Z,71.60
2018-03-26T02:54:14.259Z,72.40
2018-03-26T02:56:40.260Z,72.50
2018-03-26T02:59:06.380Z,72.60
2018-03-26T03:01:32.395Z,72.50
2018-03-26T03:03:58.382Z,72.80
2018-03-26T03:06:24.366Z,73.40
2018-03-26T03:08:50.348Z,73.50
2018-03-26T03:11:16.351Z,73.40
2018-03-26T03:13:42.367Z,74.70
2018-03-26T03:16:08.372Z,73.60
2018-03-26T03:18:34.354Z,73.40
2018-03-26T03:21:01.099Z,73.90
2018-03-26T03:23:27.838Z,74.10
2018-03-26T03:25:53.858Z,74.10
2018-03-26T03:28:19.832Z,73.90
2018-03-26T03:30:45.832Z,73.60
2018-03-26T03:33:11.812Z,73.10
2018-03-26T03:35:37.811Z,73.20
2018-03-26T03:38:03.787Z,73.70
2018-03-26T03:40:29.796Z,73.70
2018-03-26T03:42:56.535Z,73.70
2018-03-26T03:45:23.378Z,73.60
2018-03-26T03:47:50.106Z,73.30
2018-03-26T03:50:16.850Z,73.60
2018-03-26T03:52:43.603Z,73.60
2018-03-26T03:55:10.323Z,73.00
2018-03-26T03:57:36.324Z,73.10
2018-03-26T04:00:02.375Z,73.20
2018-03-26T04:02:29.110Z,73.90
2018-03-26T04:04:55.116Z,73.90
2018-03-26T04:07:21.118Z,74.30
2018-03-26T04:09:47.099Z,74.20
2018-03-26T04:12:13.851Z,74.70
2018-03-26T04:14:40.571Z,74.50
2018-03-26T04:17:06.558Z,74.40
2018-03-26T04:19:32.527Z,73.80
2018-03-26T04:21:59.278Z,73.90
2018-03-26T04:24:25.985Z,73.30
2018-03-26T04:26:51.958Z,73.30
2018-03-26T04:29:17.943Z,73.10
2018-03-26T04:31:44.666Z,72.80
2018-03-26T04:34:10.651Z,72.80
2018-03-26T04:36:36.647Z,73.20
2018-03-26T04:39:03.358Z,73.10
2018-03-26T04:41:30.119Z,72.60
2018-03-26T04:43:56.847Z,72.80
2018-03-26T04:46:22.834Z,72.80
2018-03-26T04:48:48.867Z,73.00
2018-03-26T04:51:14.864Z,73.80
2018-03-26T04:53:40.849Z,74.10
2018-03-26T04:56:07.618Z,74.10
2018-03-26T04:58:33.626Z,74.20
2018-03-26T05:00:59.634Z,74.20
2018-03-26T05:03:30.370Z,74.10
2018-03-26T05:05:57.119Z,74.10
2018-03-26T05:08:23.600Z,74.10
2018-03-26T05:10:50.404Z,74.10
2018-03-26T05:13:16.451Z,74.20
2018-03-26T05:15:42.462Z,74.80
2018-03-26T05:18:08.496Z,74.10
2018-03-26T05:20:34.528Z,74.10
2018-03-26T05:23:00.580Z,74.30
2018-03-26T05:25:26.594Z,74.70
2018-03-26T05:27:52.636Z,74.80
2018-03-26T05:30:18.655Z,74.40
2018-03-26T05:32:44.651Z,74.10
2018-03-26T05:35:10.680Z,74.10
2018-03-26T05:37:36.691Z,74.10
2018-03-26T05:40:02.741Z,74.20
2018-03-26T05:42:28.796Z,73.40
2018-03-26T05:44:55.559Z,73.40
2018-03-26T05:47:21.554Z,73.40
2018-03-26T05:49:48.310Z,73.90
2018-03-26T05:52:15.078Z,73.80
2018-03-26T05:54:41.785Z,73.40
2018-03-26T05:57:08.502Z,72.70
2018-03-26T05:59:34.486Z,72.70
2018-03-26T06:02:00.487Z,72.40
2018-03-26T06:04:27.222Z,72.00
2018-03-26T06:06:53.216Z,72.10
2018-03-26T06:09:19.203Z,71.10
2018-03-26T06:11:45.211Z,71.30
2018-03-26T06:14:11.223Z,71.50
2018-03-26T06:16:43.572Z,71.20
2018-03-26T06:19:09.630Z,71.30
2018-03-26T06:21:35.623Z,71.20
2018-03-26T06:24:02.380Z,71.40
2018-03-26T06:26:28.423Z,71.40
2018-03-26T06:28:54.419Z,71.80
2018-03-26T06:31:20.478Z,71.70
2018-03-26T06:33:46.443Z,71.50
2018-03-26T06:36:18.541Z,71.70
2018-03-26T06:39:00.218Z,71.90
2018-03-26T06:41:26.958Z,72.10
2018-03-26T06:43:52.962Z,72.20
2018-03-26T06:46:18.990Z,71.80
2018-03-26T06:48:45.728Z,71.40
2018-03-26T06:51:11.733Z,71.40
2018-03-26T06:53:37.706Z,72.00
2018-03-26T06:56:03.710Z,72.10
2018-03-26T06:58:30.458Z,71.40
2018-03-26T07:00:56.474Z,71.40
2018-03-26T07:03:23.189Z,72.20
2018-03-26T07:05:49.247Z,72.10
2018-03-26T07:08:15.999Z,71.00
2018-03-26T07:10:42.013Z,71.00
2018-03-26T07:13:08.045Z,71.20
2018-03-26T07:15:34.063Z,70.90
2018-03-26T07:18:00.062Z,71.00
2018-03-26T07:20:26.081Z,70.80
2018-03-26T07:22:52.948Z,70.50
2018-03-26T07:25:18.960Z,70.50
2018-03-26T07:27:45.706Z,70.90
2018-03-26T07:30:11.690Z,70.90
2018-03-26T07:32:37.695Z,71.10
2018-03-26T07:35:03.720Z,70.80
2018-03-26T07:37:29.724Z,70.70
2018-03-26T07:39:56.423Z,70.60
2018-03-26T07:42:22.418Z,70.60
2018-03-26T07:44:48.399Z,71.70
2018-03-26T07:47:15.133Z,70.90
2018-03-26T07:49:41.867Z,70.20
2018-03-26T07:52:08.611Z,69.80
2018-03-26T07:54:34.602Z,69.80
2018-03-26T07:57:00.599Z,70.90
2018-03-26T07:59:26.590Z,71.20
2018-03-26T08:01:52.604Z,70.50
2018-03-26T08:04:18.602Z,70.30
2018-03-26T08:06:45.355Z,70.30
2018-03-26T08:09:12.075Z,70.60
2018-03-26T08:11:38.154Z,70.60
2018-03-26T08:14:04.267Z,70.40
2018-03-26T08:16:30.349Z,69.70
2018-03-26T08:18:56.365Z,69.40
2018-03-26T08:21:22.375Z,69.70
2018-03-26T08:23:48.355Z,69.20
2018-03-26T08:26:15.075Z,70.50
2018-03-26T08:28:41.108Z,70.40
2018-03-26T08:31:07.845Z,69.90
2018-03-26T08:33:34.570Z,70.20
2018-03-26T08:36:00.552Z,70.20
2018-03-26T08:38:26.557Z,70.20
2018-03-26T08:40:53.273Z,69.40
2018-03-26T08:43:20.023Z,69.50
2018-03-26T08:45:46.763Z,70.00
2018-03-26T08:48:12.792Z,69.90
2018-03-26T08:50:39.522Z,69.90
2018-03-26T08:53:06.283Z,70.60
2018-03-26T08:55:33.003Z,70.40
2018-03-26T08:57:59.743Z,70.50
2018-03-26T09:00:26.463Z,70.20
2018-03-26T09:02:52.462Z,70.10
2018-03-26T09:05:18.450Z,70.00
2018-03-26T09:07:44.447Z,69.90
2018-03-26T09:10:11.176Z,69.70
2018-03-26T09:12:37.202Z,69.50
2018-03-26T09:15:03.298Z,69.50
2018-03-26T09:17:30.074Z,69.70
2018-03-26T09:19:56.075Z,69.70
2018-03-26T09:22:22.086Z,70.30
2018-03-26T09:24:48.118Z,69.40
2018-03-26T09:27:14.098Z,68.30
2018-03-26T09:29:40.111Z,68.20
2018-03-26T09:32:06.098Z,67.70
2018-03-26T09:34:32.101Z,67.00
2018-03-26T09:36:58.891Z,72.00
2018-03-26T09:39:25.663Z,65.90
2018-03-26T09:41:52.355Z,60.50
2018-03-26T09:44:18.367Z,60.50
2018-03-26T09:46:44.343Z,58.00
2018-03-26T09:49:10.372Z,56.00
2018-03-26T09:51:36.346Z,55.60
2018-03-26T09:54:02.367Z,54.90
2018-03-26T09:56:28.327Z,55.90
2018-03-26T09:58:54.353Z,55.30
2018-03-26T10:01:21.082Z,53.70
2018-03-26T10:03:47.074Z,53.70
2018-03-26T10:06:13.049Z,56.20
2018-03-26T10:08:39.059Z,57.00
2018-03-26T10:11:05.779Z,57.60
2018-03-26T10:13:31.797Z,57.60
2018-03-26T10:15:58.540Z,57.80
2018-03-26T10:18:24.611Z,57.80
2018-03-26T10:20:50.613Z,57.80
2018-03-26T10:23:16.598Z,57.80
2018-03-26T10:25:43.356Z,57.20
2018-03-26T10:28:10.095Z,56.50
2018-03-26T10:30:36.838Z,56.70
2018-03-26T10:33:03.562Z,56.00
2018-03-26T10:35:30.470Z,56.30
2018-03-26T10:37:56.447Z,55.60
2018-03-26T10:40:23.498Z,54.50
2018-03-26T10:42:50.214Z,54.00
2018-03-26T10:45:16.957Z,53.80
2018-03-26T10:47:43.718Z,54.10
2018-03-26T10:50:10.502Z,58.30
2018-03-26T10:52:36.496Z,58.30
2018-03-26T10:55:02.482Z,50.60
2018-03-26T10:57:28.495Z,50.50
2018-03-26T10:59:55.250Z,50.90
2018-03-26T11:02:21.974Z,52.00
2018-03-26T11:04:48.011Z,51.10
2018-03-26T11:07:14.762Z,52.70
2018-03-26T11:09:41.512Z,52.20
2018-03-26T11:12:07.563Z,52.20
2018-03-26T11:14:33.559Z,53.20
2018-03-26T11:17:00.299Z,54.00
2018-03-26T11:19:27.020Z,52.70
2018-03-26T11:21:53.028Z,52.80
2018-03-26T11:24:19.005Z,52.90
2018-03-26T11:26:45.722Z,52.80
2018-03-26T11:29:12.452Z,53.60
2018-03-26T11:31:38.442Z,53.60
2018-03-26T11:34:04.698Z,53.60
2018-03-26T11:36:30.685Z,53.50
2018-03-26T11:38:56.670Z,52.50
2018-03-26T11:41:22.781Z,53.40
2018-03-26T11:43:49.020Z,53.30
2018-03-26T11:46:15.020Z,52.00
2018-03-26T11:48:41.765Z,49.40
2018-03-26T11:51:07.766Z,48.60
2018-03-26T11:53:33.756Z,49.30
2018-03-26T11:56:00.858Z,47.50
2018-03-26T11:58:27.435Z,47.50
2018-03-26T12:00:53.912Z,48.40
2018-03-26T12:03:19.932Z,56.70
2018-03-26T12:05:45.975Z,48.90
2018-03-26T12:08:11.978Z,48.80
2018-03-26T12:10:37.971Z,55.60
2018-03-26T12:13:03.976Z,50.10
2018-03-26T12:15:29.966Z,50.70
2018-03-26T12:17:55.972Z,51.60
2018-03-26T12:20:28.126Z,52.40
2018-03-26T12:22:55.310Z,52.40
2018-03-26T12:25:21.393Z,52.20
2018-03-26T12:27:53.415Z,52.10
2018-03-26T12:30:20.171Z,51.90
2018-03-26T12:32:48.172Z,51.90
2018-03-26T12:35:20.355Z,52.20
2018-03-26T12:37:46.377Z,52.00
2018-03-26T12:40:18.415Z,53.00
2018-03-26T12:42:44.415Z,52.70
2018-03-26T12:45:16.471Z,53.10
2018-03-26T12:47:43.231Z,53.70
2018-03-26T12:50:09.263Z,53.60
2018-03-26T12:52:41.441Z,53.60
2018-03-26T12:55:07.430Z,54.60
2018-03-26T12:57:42.368Z,54.50
2018-03-26T13:00:08.430Z,54.50
2018-03-26T13:02:35.143Z,54.80
2018-03-26T13:05:01.296Z,54.80
2018-03-26T13:07:27.283Z,55.20
2018-03-26T13:09:53.255Z,54.70
2018-03-26T13:12:19.231Z,55.80
2018-03-26T13:14:45.223Z,55.40
2018-03-26T13:17:11.981Z,56.30
2018-03-26T13:19:38.707Z,58.00
2018-03-26T13:22:05.427Z,58.30
2018-03-26T13:24:31.422Z,58.30
2018-03-26T13:26:57.416Z,57.80
2018-03-26T13:29:23.559Z,57.60
2018-03-26T13:31:49.579Z,57.60
2018-03-26T13:34:15.606Z,56.90
2018-03-26T13:36:41.586Z,56.80
2018-03-26T13:39:07.603Z,57.10
2018-03-26T13:41:33.607Z,57.00
2018-03-26T13:43:59.607Z,57.20
2018-03-26T13:46:25.621Z,58.20
2018-03-26T13:48:51.639Z,57.90
2018-03-26T13:51:17.686Z,57.90
2018-03-26T13:53:43.707Z,58.20
2018-03-26T13:56:09.692Z,57.90
2018-03-26T13:58:36.514Z,57.90
2018-03-26T14:01:02.470Z,58.00
2018-03-26T14:03:28.518Z,62.00
2018-03-26T14:05:54.643Z,55.40
2018-03-26T14:08:26.674Z,56.70
2018-03-26T14:10:59.415Z,55.30
2018-03-26T14:13:31.463Z,55.30
2018-03-26T14:16:03.558Z,56.00
2018-03-26T14:18:29.649Z,57.10
2018-03-26T14:20:56.331Z,57.00
2018-03-26T14:23:22.285Z,57.80
2018-03-26T14:25:48.279Z,57.00
2018-03-26T14:28:14.247Z,57.00
2018-03-26T14:30:40.253Z,57.00
2018-03-26T14:33:06.963Z,57.10
2018-03-26T14:35:47.930Z,57.10
2018-03-26T14:38:13.911Z,57.10
2018-03-26T14:40:39.915Z,57.90
2018-03-26T14:43:06.639Z,55.30
2018-03-26T14:45:33.385Z,55.10
2018-03-26T14:48:00.131Z,55.00
2018-03-26T14:50:26.131Z,55.00
2018-03-26T14:52:52.845Z,60.40
2018-03-26T14:55:18.842Z,60.30
2018-03-26T14:57:44.831Z,52.40
2018-03-26T15:00:11.558Z,52.20
2018-03-26T15:02:37.573Z,52.20
2018-03-26T15:05:03.627Z,52.60
2018-03-26T15:07:29.711Z,57.30
2018-03-26T15:09:55.687Z,53.70
2018-03-26T15:12:21.691Z,54.40
2018-03-26T15:14:48.459Z,55.60
2018-03-26T15:17:14.443Z,55.60
2018-03-26T15:19:41.175Z,55.60
2018-03-26T15:22:07.175Z,55.20
2018-03-26T15:24:33.158Z,55.60
2018-03-26T15:26:59.164Z,56.90
2018-03-26T15:29:25.891Z,57.70
2018-03-26T15:31:51.911Z,57.70
2018-03-26T15:34:18.643Z,54.90
2018-03-26T15:36:44.642Z,54.90
2018-03-26T15:39:10.635Z,55.60
2018-03-26T15:41:36.615Z,56.20
2018-03-26T15:44:02.627Z,56.40
2018-03-26T15:46:28.606Z,55.90
2018-03-26T15:48:55.339Z,55.30
2018-03-26T15:51:21.354Z,55.30
2018-03-26T15:53:48.135Z,54.70
2018-03-26T15:56:14.111Z,54.70
2018-03-26T15:58:40.096Z,53.70
2018-03-26T16:01:06.096Z,53.60
2018-03-26T16:03:32.115Z,53.30
2018-03-26T16:05:58.107Z,53.50
2018-03-26T16:08:26.100Z,54.20
2018-03-26T16:10:52.084Z,53.30
2018-03-26T16:13:18.101Z,53.70
2018-03-26T16:15:44.847Z,53.90
2018-03-26T16:18:11.598Z,54.30
2018-03-26T16:20:37.571Z,54.10
2018-03-26T16:23:03.574Z,54.00
2018-03-26T16:25:29.590Z,54.40
2018-03-26T16:27:55.682Z,54.20
2018-03-26T16:30:23.891Z,55.80
2018-03-26T16:32:49.912Z,57.00
2018-03-26T16:35:15.906Z,57.40
2018-03-26T16:37:41.883Z,57.40
2018-03-26T16:40:07.894Z,57.40
2018-03-26T16:42:40.072Z,57.70
2018-03-26T16:45:06.074Z,57.80
2018-03-26T16:47:32.799Z,58.10
2018-03-26T16:49:59.555Z,57.00
2018-03-26T16:52:25.567Z,57.00
2018-03-26T16:54:52.339Z,57.00
2018-03-26T16:57:18.339Z,57.00
2018-03-26T16:59:44.363Z,57.20
2018-03-26T17:02:10.357Z,57.60
2018-03-26T17:04:36.367Z,57.60
2018-03-26T17:07:02.363Z,57.70
2018-03-26T17:09:28.326Z,58.10
2018-03-26T17:11:54.327Z,58.30
2018-03-26T17:14:20.505Z,58.80
2018-03-26T17:16:46.613Z,59.00
2018-03-26T17:19:12.818Z,59.30
2018-03-26T17:21:38.839Z,59.50
2018-03-26T17:24:04.962Z,59.70
2018-03-26T17:26:32.951Z,59.60
2018-03-26T17:28:59.025Z,59.70
2018-03-26T17:31:25.047Z,60.10
2018-03-26T17:33:51.023Z,60.20
2018-03-26T17:36:17.038Z,60.50
2018-03-26T17:38:43.015Z,60.80
2018-03-26T17:41:09.044Z,61.20
2018-03-26T17:43:35.019Z,61.10
2018-03-26T17:46:01.028Z,60.90
2018-03-26T17:48:27.047Z,62.80
2018-03-26T17:50:53.855Z,59.60
2018-03-26T17:53:19.863Z,59.60
2018-03-26T17:55:45.844Z,59.60
2018-03-26T17:58:11.894Z,60.20
2018-03-26T18:00:38.634Z,60.70
2018-03-26T18:03:04.643Z,60.70
2018-03-26T18:05:31.363Z,61.50
2018-03-26T18:07:57.350Z,61.40
2018-03-26T18:10:23.373Z,61.80
2018-03-26T18:12:49.395Z,62.50
2018-03-26T18:15:15.379Z,62.90
2018-03-26T18:17:41.369Z,63.50
2018-03-26T18:20:07.319Z,64.10
2018-03-26T18:22:33.387Z,63.90
2018-03-26T18:25:01.190Z,64.60
2018-03-26T18:27:27.222Z,64.70
2018-03-26T18:29:53.190Z,64.70
2018-03-26T18:32:19.161Z,64.70
2018-03-26T18:34:45.146Z,64.70
2018-03-26T18:37:11.122Z,64.90
2018-03-26T18:39:37.142Z,65.00
2018-03-26T18:42:03.195Z,66.00
2018-03-26T18:44:29.205Z,66.60
2018-03-26T18:46:55.934Z,65.90
2018-03-26T18:49:21.959Z,65.80
2018-03-26T18:51:48.036Z,65.80
2018-03-26T18:54:14.023Z,65.80
2018-03-26T18:56:40.719Z,65.80
2018-03-26T18:59:06.694Z,65.80
2018-03-26T19:01:32.608Z,65.80
2018-03-26T19:03:58.572Z,66.20
2018-03-26T19:06:24.517Z,65.80
2018-03-26T19:08:50.502Z,65.80
2018-03-26T19:11:16.511Z,65.80
2018-03-26T19:13:43.262Z,66.00
2018-03-26T19:16:09.251Z,66.10
2018-03-26T19:18:35.234Z,66.60
2018-03-26T19:21:01.236Z,66.40
2018-03-26T19:23:27.252Z,66.80
2018-03-26T19:25:53.272Z,66.80
2018-03-26T19:28:19.262Z,66.60
2018-03-26T19:30:45.226Z,66.90
2018-03-26T19:33:12.058Z,66.60
2018-03-26T19:35:38.788Z,67.10
2018-03-26T19:38:05.515Z,67.40
2018-03-26T19:40:31.491Z,67.30
2018-03-26T19:42:57.471Z,67.60
2018-03-26T19:45:23.554Z,67.70
2018-03-26T19:47:49.518Z,67.90
2018-03-26T19:50:16.275Z,67.80
2018-03-26T19:52:42.323Z,67.90
2018-03-26T19:55:08.283Z,67.80
2018-03-26T19:57:34.247Z,67.40
2018-03-26T20:00:00.232Z,67.90
2018-03-26T20:02:26.300Z,67.70
2018-03-26T20:04:52.270Z,67.90
2018-03-26T20:07:18.259Z,68.50
2018-03-26T20:09:44.398Z,68.20
2018-03-26T20:12:10.396Z,68.10
2018-03-26T20:14:36.379Z,68.30
2018-03-26T20:17:02.385Z,68.40
2018-03-26T20:19:28.354Z,68.70
2018-03-26T20:21:54.356Z,68.50
2018-03-26T20:24:21.115Z,68.80
2018-03-26T20:26:47.830Z,69.10
2018-03-26T20:29:13.823Z,69.10
2018-03-26T20:31:39.822Z,68.80
2018-03-26T20:34:05.795Z,68.70
2018-03-26T20:36:31.763Z,68.90
2018-03-26T20:38:57.752Z,68.90
2018-03-26T20:41:24.093Z,69.00
2018-03-26T20:43:50.087Z,69.20
2018-03-26T20:46:16.099Z,69.30
2018-03-26T20:48:42.114Z,69.70
2018-03-26T20:51:08.083Z,70.00
2018-03-26T20:53:34.838Z,69.50
2018-03-26T20:56:01.551Z,69.50
2018-03-26T20:58:27.551Z,69.50
2018-03-26T21:00:53.562Z,69.50
2018-03-26T21:03:19.547Z,69.60
2018-03-26T21:05:46.256Z,69.80
2018-03-26T21:08:12.260Z,69.80
2018-03-26T21:10:38.243Z,70.40
2018-03-26T21:13:04.328Z,69.70
2018-03-26T21:15:30.323Z,69.70
2018-03-26T21:17:56.410Z,69.20
2018-03-26T21:20:22.386Z,69.30
2018-03-26T21:22:48.395Z,69.50
2018-03-26T21:25:14.387Z,69.60
2018-03-26T21:27:40.382Z,69.70
2018-03-26T21:30:07.106Z,70.60
2018-03-26T21:32:33.116Z,70.60
2018-03-26T21:34:59.111Z,70.90
2018-03-26T21:37:25.093Z,70.40
2018-03-26T21:39:51.815Z,70.70
2018-03-26T21:42:17.803Z,70.70
2018-03-26T21:44:43.850Z,71.20
2018-03-26T21:47:09.843Z,71.40
2018-03-26T21:49:35.923Z,72.00
2018-03-26T21:52:01.956Z,71.50
2018-03-26T21:54:27.979Z,71.30
2018-03-26T21:56:54.731Z,71.20
2018-03-26T21:59:20.726Z,71.30
2018-03-26T22:01:46.971Z,71.90
2018-03-26T22:04:13.711Z,72.20
2018-03-26T22:06:39.685Z,72.20
2018-03-26T22:09:05.926Z,72.20
2018-03-26T22:11:31.895Z,72.30
2018-03-26T22:13:58.662Z,72.50
2018-03-26T22:16:24.626Z,72.50
2018-03-26T22:18:50.634Z,72.80
2018-03-26T22:21:16.627Z,72.30
2018-03-26T22:23:42.611Z,72.10
2018-03-26T22:26:09.000Z,72.40
2018-03-26T22:28:35.894Z,72.60
2018-03-26T22:31:02.639Z,72.70
2018-03-26T22:33:28.637Z,72.70
2018-03-26T22:35:54.616Z,72.80
2018-03-26T22:38:20.606Z,73.10
2018-03-26T22:40:47.344Z,73.10
2018-03-26T22:43:13.351Z,73.10
2018-03-26T22:45:39.355Z,72.90
2018-03-26T22:48:05.338Z,73.60
2018-03-26T22:50:31.339Z,72.80
2018-03-26T22:52:57.327Z,72.50
2018-03-26T22:55:23.633Z,72.60
2018-03-26T22:57:49.643Z,72.80
2018-03-26T23:00:15.638Z,73.60
2018-03-26T23:02:42.643Z,73.20
2018-03-26T23:05:08.666Z,73.20
2018-03-26T23:07:34.643Z,73.40
2018-03-26T23:10:00.650Z,73.10
2018-03-26T23:12:27.374Z,72.90
2018-03-26T23:14:53.346Z,72.90
2018-03-26T23:17:19.376Z,73.00
2018-03-26T23:19:45.292Z,73.30
2018-03-26T23:22:11.303Z,73.30
2018-03-26T23:24:37.291Z,73.20
2018-03-26T23:27:03.302Z,73.30
2018-03-26T23:29:29.664Z,73.00
2018-03-26T23:31:56.413Z,73.50
2018-03-26T23:34:22.407Z,73.50
2018-03-26T23:36:49.174Z,73.60
2018-03-26T23:39:15.150Z,74.00
2018-03-26T23:41:41.166Z,74.20
2018-03-26T23:44:07.162Z,74.80
2018-03-26T23:46:34.803Z,73.80
2018-03-26T23:49:00.798Z,74.20
2018-03-26T23:51:27.794Z,74.10
2018-03-26T23:53:53.771Z,74.30
2018-03-26T23:56:20.587Z,74.30
2018-03-26T23:58:47.483Z,74.30
